createdAt,value
2019-04-04T00:00:59.649Z,5.50
2019-04-04T00:03:29.239Z,5.50
2019-04-04T00:05:58.898Z,5.50
2019-04-04T00:08:30.767Z,5.40
2019-04-04T00:10:59.705Z,5.30
2019-04-04T00:13:29.378Z,5.30
2019-04-04T00:15:58.867Z,5.20
2019-04-04T00:18:28.630Z,5.10
2019-04-04T00:21:02.457Z,5.00
2019-04-04T00:23:30.554Z,5.00
2019-04-04T00:26:00.218Z,4.90
2019-04-04T00:28:29.727Z,4.90
2019-04-04T00:30:59.164Z,5.00
2019-04-04T00:33:28.717Z,5.10
2019-04-04T00:35:58.629Z,5.20
2019-04-04T00:38:28.379Z,5.30
2019-04-04T00:40:58.172Z,5.50
2019-04-04T00:43:28.198Z,5.60
2019-04-04T00:46:00.463Z,5.60
2019-04-04T00:48:30.015Z,5.70
2019-04-04T00:50:59.541Z,5.80
2019-04-04T00:53:30.688Z,5.80
2019-04-04T00:56:00.744Z,5.80
2019-04-04T00:58:30.553Z,5.80
2019-04-04T01:01:00.447Z,5.80
2019-04-04T01:03:30.746Z,5.90
2019-04-04T01:06:02.831Z,5.80
2019-04-04T01:08:31.934Z,5.80
2019-04-04T01:11:01.542Z,5.80
2019-04-04T01:13:31.302Z,5.80
2019-04-04T01:16:02.938Z,5.80
2019-04-04T01:18:32.470Z,5.80
2019-04-04T01:21:02.194Z,5.70
2019-04-04T01:23:32.043Z,5.70
2019-04-04T01:26:03.439Z,5.70
2019-04-04T01:28:33.196Z,5.70
2019-04-04T01:31:02.958Z,5.60
2019-04-04T01:33:32.824Z,5.60
2019-04-04T01:36:03.016Z,5.60
2019-04-04T01:38:32.559Z,5.60
2019-04-04T01:41:04.502Z,5.60
2019-04-04T01:43:33.653Z,5.60
2019-04-04T01:46:03.526Z,5.60
2019-04-04T01:48:33.120Z,5.60
2019-04-04T01:51:02.911Z,5.60
2019-04-04T01:53:32.644Z,5.60
2019-04-04T01:56:05.913Z,5.70
2019-04-04T01:58:34.108Z,5.80
2019-04-04T02:01:04.109Z,5.80
2019-04-04T02:03:33.774Z,5.80
2019-04-04T02:06:03.486Z,5.90
2019-04-04T02:08:33.420Z,5.80
2019-04-04T02:11:05.210Z,5.80
2019-04-04T02:13:34.333Z,5.80
2019-04-04T02:16:04.043Z,5.80
2019-04-04T02:18:34.160Z,5.80
2019-04-04T02:21:03.714Z,5.80
2019-04-04T02:23:33.784Z,5.80
2019-04-04T02:26:05.152Z,5.80
2019-04-04T02:28:35.245Z,5.70
2019-04-04T02:31:06.663Z,5.70
2019-04-04T02:33:36.603Z,5.70
2019-04-04T02:36:06.833Z,5.70
2019-04-04T02:38:36.598Z,5.70
2019-04-04T02:41:06.510Z,5.70
2019-04-04T02:43:36.259Z,5.70
2019-04-04T02:46:05.871Z,5.60
2019-04-04T02:48:35.825Z,5.60
2019-04-04T02:51:08.022Z,5.60
2019-04-04T02:53:37.025Z,5.60
2019-04-04T02:56:06.541Z,5.60
2019-04-04T02:58:36.413Z,5.60
2019-04-04T03:01:06.174Z,5.50
2019-04-04T03:03:36.221Z,5.60
2019-04-04T03:06:05.831Z,5.50
2019-04-04T03:08:37.679Z,5.50
2019-04-04T03:11:06.736Z,5.50
2019-04-04T03:13:36.759Z,5.50
2019-04-04T03:16:06.412Z,5.50
2019-04-04T03:18:37.227Z,5.60
2019-04-04T03:21:07.556Z,5.60
2019-04-04T03:23:37.567Z,5.60
2019-04-04T03:26:07.490Z,5.70
2019-04-04T03:28:37.348Z,5.60
2019-04-04T03:31:07.249Z,5.10
2019-04-04T03:33:36.854Z,4.80
2019-04-04T03:36:06.483Z,4.60
2019-04-04T03:38:35.932Z,4.60
2019-04-04T03:41:05.999Z,4.70
2019-04-04T03:43:35.806Z,4.70
2019-04-04T03:46:06.207Z,4.80
2019-04-04T03:48:35.960Z,4.80
2019-04-04T03:51:05.654Z,4.90
2019-04-04T03:53:35.847Z,4.90
2019-04-04T03:56:05.362Z,4.90
2019-04-04T03:58:35.319Z,4.90
2019-04-04T04:01:05.098Z,5.00
2019-04-04T04:03:34.531Z,5.00
2019-04-04T04:06:08.418Z,5.00
2019-04-04T04:08:35.979Z,5.00
2019-04-04T04:11:06.139Z,5.10
2019-04-04T04:13:35.984Z,5.10
2019-04-04T04:16:05.878Z,5.00
2019-04-04T04:18:35.684Z,5.00
2019-04-04T04:21:09.727Z,5.00
2019-04-04T04:23:36.654Z,4.90
2019-04-04T04:26:09.470Z,4.90
2019-04-04T04:28:38.046Z,5.00
2019-04-04T04:31:08.297Z,5.00
2019-04-04T04:33:37.927Z,5.00
2019-04-04T04:36:09.712Z,5.00
2019-04-04T04:38:39.031Z,5.00
2019-04-04T04:41:08.887Z,5.00
2019-04-04T04:43:38.766Z,5.10
2019-04-04T04:46:08.349Z,5.10
2019-04-04T04:48:38.057Z,5.10
2019-04-04T04:51:11.565Z,5.10
2019-04-04T04:53:39.041Z,5.10
2019-04-04T04:56:09.065Z,5.10
2019-04-04T04:58:41.711Z,5.10
2019-04-04T05:01:09.985Z,5.10
2019-04-04T05:03:39.815Z,5.10
2019-04-04T05:06:09.278Z,5.00
2019-04-04T05:08:39.010Z,5.00
2019-04-04T05:11:10.356Z,5.00
2019-04-04T05:13:40.151Z,5.00
2019-04-04T05:16:09.869Z,5.00
2019-04-04T05:18:39.963Z,5.00
2019-04-04T05:21:09.355Z,4.90
2019-04-04T05:23:39.049Z,4.90
2019-04-04T05:26:09.774Z,4.90
2019-04-04T05:28:41.734Z,4.90
2019-04-04T05:31:10.983Z,4.90
2019-04-04T05:33:40.849Z,4.90
2019-04-04T05:36:10.471Z,5.00
2019-04-04T05:38:42.641Z,5.00
2019-04-04T05:41:12.386Z,5.00
2019-04-04T05:43:42.412Z,5.00
2019-04-04T05:46:12.103Z,5.00
2019-04-04T05:48:41.686Z,5.00
2019-04-04T05:51:14.952Z,5.00
2019-04-04T05:53:43.359Z,5.00
2019-04-04T05:56:14.993Z,5.00
2019-04-04T05:58:44.625Z,5.00
2019-04-04T06:01:15.570Z,5.00
2019-04-04T06:03:47.817Z,5.00
2019-04-04T06:06:16.772Z,5.00
2019-04-04T06:08:46.758Z,5.00
2019-04-04T06:11:16.182Z,5.00
2019-04-04T06:13:46.091Z,5.10
2019-04-04T06:16:16.175Z,5.10
2019-04-04T06:18:48.918Z,5.10
2019-04-04T06:21:18.830Z,5.10
2019-04-04T06:23:49.031Z,5.10
2019-04-04T06:26:18.931Z,5.10
2019-04-04T06:28:48.494Z,5.10
2019-04-04T06:31:18.205Z,5.20
2019-04-04T06:33:48.171Z,5.20
2019-04-04T06:36:18.345Z,5.20
2019-04-04T06:38:49.797Z,5.20
2019-04-04T06:41:19.414Z,5.20
2019-04-04T06:43:49.250Z,5.20
2019-04-04T06:46:22.493Z,5.20
2019-04-04T06:48:50.856Z,5.20
2019-04-04T06:51:20.605Z,5.30
2019-04-04T06:53:53.333Z,5.30
2019-04-04T06:56:22.035Z,5.30
2019-04-04T06:58:51.646Z,5.30
2019-04-04T07:01:22.109Z,5.40
2019-04-04T07:03:53.111Z,5.40
2019-04-04T07:06:22.925Z,5.50
2019-04-04T07:08:52.781Z,5.50
2019-04-04T07:11:22.447Z,5.50
2019-04-04T07:13:52.160Z,5.50
2019-04-04T07:16:22.048Z,5.50
2019-04-04T07:18:51.527Z,5.50
2019-04-04T07:21:21.325Z,5.60
2019-04-04T07:23:50.718Z,5.70
2019-04-04T07:26:20.351Z,5.80
2019-04-04T07:28:53.763Z,6.00
2019-04-04T07:31:21.513Z,6.00
2019-04-04T07:33:51.221Z,6.10
2019-04-04T07:36:20.954Z,6.00
2019-04-04T07:38:50.579Z,6.20
2019-04-04T07:41:20.130Z,6.20
2019-04-04T07:43:51.613Z,6.20
2019-04-04T07:46:20.753Z,6.20
2019-04-04T07:48:51.565Z,6.10
2019-04-04T07:51:21.558Z,6.10
2019-04-04T07:53:51.135Z,6.10
2019-04-04T07:56:20.944Z,6.50
2019-04-04T07:58:50.597Z,6.90
2019-04-04T08:01:23.493Z,7.00
2019-04-04T08:03:52.867Z,6.80
2019-04-04T08:06:22.566Z,6.70
2019-04-04T08:08:52.147Z,6.60
2019-04-04T08:11:22.057Z,6.50
2019-04-04T08:13:51.695Z,6.70
2019-04-04T08:16:21.257Z,7.40
2019-04-04T08:18:50.851Z,7.70
2019-04-04T08:21:20.357Z,8.00
2019-04-04T08:23:50.635Z,8.40
2019-04-04T08:26:20.183Z,8.50
2019-04-04T08:28:49.919Z,8.40
2019-04-04T08:31:19.600Z,8.50
2019-04-04T08:33:49.369Z,8.50
2019-04-04T08:36:18.981Z,8.30
2019-04-04T08:38:48.619Z,8.10
2019-04-04T08:41:18.161Z,8.00
2019-04-04T08:43:47.569Z,8.10
2019-04-04T08:46:19.741Z,7.70
2019-04-04T08:48:48.706Z,8.10
2019-04-04T08:51:18.242Z,8.70
2019-04-04T08:53:48.196Z,8.50
2019-04-04T08:56:17.839Z,8.60
2019-04-04T08:58:47.650Z,8.10
2019-04-04T09:01:17.033Z,8.00
2019-04-04T09:03:49.735Z,8.30
2019-04-04T09:06:19.113Z,8.30
2019-04-04T09:08:48.971Z,8.30
2019-04-04T09:11:18.499Z,8.50
2019-04-04T09:13:48.113Z,8.90
2019-04-04T09:16:17.592Z,9.20
2019-04-04T09:18:47.008Z,9.30
2019-04-04T09:21:16.791Z,8.90
2019-04-04T09:23:46.479Z,8.60
2019-04-04T09:26:16.040Z,8.10
2019-04-04T09:28:45.547Z,8.30
2019-04-04T09:31:15.221Z,8.20
2019-04-04T09:33:44.658Z,7.90
2019-04-04T09:36:14.578Z,8.00
2019-04-04T09:38:43.951Z,7.70
2019-04-04T09:41:14.034Z,7.60
2019-04-04T09:43:43.435Z,8.10
2019-04-04T09:46:13.092Z,8.40
2019-04-04T09:48:42.661Z,8.50
2019-04-04T09:51:12.152Z,8.10
2019-04-04T09:53:52.832Z,7.90
2019-04-04T09:56:13.225Z,8.00
2019-04-04T09:58:42.749Z,7.80
2019-04-04T10:01:12.484Z,7.70
2019-04-04T10:03:41.987Z,8.10
2019-04-04T10:06:11.730Z,8.00
2019-04-04T10:08:41.750Z,7.80
2019-04-04T10:11:11.409Z,8.10
2019-04-04T10:13:41.004Z,8.60
2019-04-04T10:16:10.854Z,8.80
2019-04-04T10:18:40.381Z,8.50
2019-04-04T10:21:12.026Z,8.50
2019-04-04T10:23:40.940Z,8.00
2019-04-04T10:26:10.679Z,7.60
2019-04-04T10:28:40.365Z,7.40
2019-04-04T10:31:10.266Z,7.20
2019-04-04T10:33:42.185Z,7.30
2019-04-04T10:36:11.619Z,7.20
2019-04-04T10:38:41.222Z,7.20
2019-04-04T10:41:11.018Z,7.40
2019-04-04T10:43:40.479Z,7.70
2019-04-04T10:46:10.142Z,8.20
2019-04-04T10:48:40.070Z,8.60
2019-04-04T10:51:09.872Z,9.00
2019-04-04T10:53:39.551Z,9.10
2019-04-04T10:56:09.391Z,8.70
2019-04-04T10:58:38.852Z,9.20
2019-04-04T11:01:08.682Z,9.10
2019-04-04T11:03:38.253Z,9.30
2019-04-04T11:06:07.928Z,9.30
2019-04-04T11:08:37.538Z,9.10
2019-04-04T11:11:07.008Z,8.60
2019-04-04T11:13:36.719Z,7.70
2019-04-04T11:16:06.139Z,7.40
2019-04-04T11:18:35.586Z,7.10
2019-04-04T11:21:05.382Z,7.00
2019-04-04T11:23:35.106Z,7.10
2019-04-04T11:26:04.858Z,7.20
2019-04-04T11:28:34.928Z,7.40
2019-04-04T11:31:05.402Z,7.40
2019-04-04T11:33:34.802Z,7.60
2019-04-04T11:36:04.425Z,7.70
2019-04-04T11:38:34.033Z,7.80
2019-04-04T11:41:03.584Z,8.10
2019-04-04T11:43:33.192Z,8.40
2019-04-04T11:46:02.863Z,8.40
2019-04-04T11:48:35.401Z,8.50
2019-04-04T11:51:05.028Z,8.70
2019-04-04T11:53:34.539Z,8.70
2019-04-04T11:56:04.101Z,8.50
2019-04-04T11:58:33.491Z,8.40
2019-04-04T12:01:06.137Z,8.40
2019-04-04T12:03:35.904Z,8.90
2019-04-04T12:06:05.928Z,9.90
2019-04-04T12:08:35.631Z,10.40
2019-04-04T12:11:05.378Z,10.60
2019-04-04T12:13:35.162Z,11.10
2019-04-04T12:16:05.011Z,11.40
2019-04-04T12:18:34.407Z,11.60
2019-04-04T12:21:04.403Z,11.70
2019-04-04T12:23:33.951Z,11.60
2019-04-04T12:26:03.598Z,11.10
2019-04-04T12:28:33.085Z,11.10
2019-04-04T12:31:02.790Z,10.80
2019-04-04T12:33:32.514Z,10.30
2019-04-04T12:36:02.688Z,10.30
2019-04-04T12:38:32.080Z,9.90
2019-04-04T12:41:02.380Z,9.20
2019-04-04T12:43:32.409Z,9.20
2019-04-04T12:46:02.311Z,9.50
2019-04-04T12:48:32.308Z,9.60
2019-04-04T12:51:02.062Z,9.70
2019-04-04T12:53:32.852Z,9.50
2019-04-04T12:56:02.512Z,9.30
2019-04-04T12:58:32.414Z,9.30
2019-04-04T13:01:01.896Z,8.80
2019-04-04T13:03:32.206Z,8.60
2019-04-04T13:06:01.913Z,8.60
2019-04-04T13:08:31.488Z,8.60
2019-04-04T13:11:01.396Z,8.70
2019-04-04T13:13:30.802Z,8.60
2019-04-04T13:16:01.482Z,8.40
2019-04-04T13:18:31.259Z,8.50
2019-04-04T13:21:01.083Z,8.50
2019-04-04T13:23:38.599Z,8.20
2019-04-04T13:26:08.412Z,7.90
2019-04-04T13:28:38.029Z,7.90
2019-04-04T13:31:15.843Z,8.20
2019-04-04T13:33:45.352Z,8.80
2019-04-04T13:36:14.843Z,9.90
2019-04-04T13:38:44.659Z,10.70
2019-04-04T13:41:21.693Z,11.30
2019-04-04T13:43:46.052Z,11.30
2019-04-04T13:46:15.880Z,11.30
2019-04-04T13:48:45.487Z,11.10
2019-04-04T13:51:15.406Z,10.40
2019-04-04T13:53:44.908Z,9.40
2019-04-04T13:56:14.580Z,8.90
2019-04-04T13:58:44.136Z,8.50
2019-04-04T14:01:13.978Z,7.90
2019-04-04T14:03:43.547Z,8.00
2019-04-04T14:06:13.096Z,7.90
2019-04-04T14:08:45.533Z,7.70
2019-04-04T14:11:13.832Z,7.30
2019-04-04T14:13:43.709Z,7.40
2019-04-04T14:16:13.360Z,7.60
2019-04-04T14:18:44.729Z,7.60
2019-04-04T14:21:14.683Z,7.50
2019-04-04T14:23:45.366Z,6.90
2019-04-04T14:26:15.266Z,6.60
2019-04-04T14:28:45.052Z,6.40
2019-04-04T14:31:14.517Z,6.20
2019-04-04T14:33:44.036Z,6.10
2019-04-04T14:36:13.597Z,5.80
2019-04-04T14:38:43.447Z,5.80
2019-04-04T14:41:13.123Z,5.90
2019-04-04T14:43:42.695Z,5.90
2019-04-04T14:46:12.086Z,5.90
2019-04-04T14:48:43.172Z,5.80
2019-04-04T14:51:13.223Z,5.70
2019-04-04T14:53:42.801Z,5.70
2019-04-04T14:56:12.556Z,5.60
2019-04-04T14:58:42.216Z,5.50
2019-04-04T15:01:12.016Z,5.50
2019-04-04T15:03:42.343Z,5.50
2019-04-04T15:06:12.344Z,5.40
2019-04-04T15:08:41.890Z,5.40
2019-04-04T15:11:23.400Z,5.30
2019-04-04T15:13:42.936Z,5.20
2019-04-04T15:16:16.420Z,5.10
2019-04-04T15:18:46.013Z,5.10
2019-04-04T15:21:15.751Z,5.00
2019-04-04T15:23:45.279Z,5.00
2019-04-04T15:26:15.211Z,5.10
2019-04-04T15:28:45.090Z,5.10
2019-04-04T15:31:14.800Z,5.20
2019-04-04T15:33:44.889Z,5.20
2019-04-04T15:36:14.981Z,5.20
2019-04-04T15:38:44.777Z,5.20
2019-04-04T15:41:14.669Z,5.30
2019-04-04T15:43:44.433Z,5.30
2019-04-04T15:46:14.008Z,5.30
2019-04-04T15:48:43.635Z,5.30
2019-04-04T15:51:13.384Z,5.20
2019-04-04T15:53:43.004Z,5.10
2019-04-04T15:56:12.662Z,5.10
2019-04-04T15:58:42.299Z,5.20
2019-04-04T16:01:11.896Z,5.20
2019-04-04T16:03:41.403Z,5.10
2019-04-04T16:06:10.829Z,5.00
2019-04-04T16:08:40.616Z,5.00
2019-04-04T16:11:10.429Z,5.10
2019-04-04T16:13:40.113Z,5.10
2019-04-04T16:16:09.645Z,5.00
2019-04-04T16:18:39.456Z,4.90
2019-04-04T16:21:08.908Z,4.90
2019-04-04T16:23:38.689Z,4.90
2019-04-04T16:26:08.172Z,4.90
2019-04-04T16:28:37.853Z,4.90
2019-04-04T16:31:07.527Z,5.00
2019-04-04T16:33:37.137Z,5.00
2019-04-04T16:36:06.943Z,4.90
2019-04-04T16:38:36.789Z,4.80
2019-04-04T16:41:06.398Z,4.70
2019-04-04T16:43:36.072Z,4.70
2019-04-04T16:46:05.475Z,4.60
2019-04-04T16:48:35.321Z,4.60
2019-04-04T16:51:05.147Z,4.50
2019-04-04T16:53:35.354Z,4.50
2019-04-04T16:56:05.133Z,4.40
2019-04-04T16:58:37.052Z,4.50
2019-04-04T17:01:07.097Z,4.50
2019-04-04T17:03:36.978Z,4.50
2019-04-04T17:06:06.573Z,4.50
2019-04-04T17:08:36.691Z,4.50
2019-04-04T17:11:06.824Z,4.50
2019-04-04T17:13:36.971Z,4.60
2019-04-04T17:16:06.549Z,4.60
2019-04-04T17:18:36.307Z,4.60
2019-04-04T17:21:05.801Z,4.60
2019-04-04T17:23:35.636Z,4.70
2019-04-04T17:26:05.159Z,4.70
2019-04-04T17:28:35.332Z,4.80
2019-04-04T17:31:07.013Z,4.80
2019-04-04T17:33:36.097Z,4.90
2019-04-04T17:36:05.881Z,4.90
2019-04-04T17:38:35.850Z,5.00
2019-04-04T17:41:05.994Z,5.00
2019-04-04T17:43:35.870Z,5.00
2019-04-04T17:46:05.895Z,5.10
2019-04-04T17:48:35.844Z,5.20
2019-04-04T17:51:05.478Z,5.30
2019-04-04T17:53:35.471Z,5.30
2019-04-04T17:56:05.781Z,5.30
2019-04-04T17:58:35.781Z,5.40
2019-04-04T18:01:07.158Z,5.40
2019-04-04T18:03:36.970Z,5.50
2019-04-04T18:06:06.933Z,5.50
2019-04-04T18:08:36.627Z,5.60
2019-04-04T18:11:06.557Z,5.60
2019-04-04T18:13:36.143Z,5.70
2019-04-04T18:16:05.771Z,5.80
2019-04-04T18:18:35.394Z,5.80
2019-04-04T18:21:04.823Z,5.80
2019-04-04T18:23:34.898Z,5.80
2019-04-04T18:26:04.350Z,5.80
2019-04-04T18:28:34.353Z,5.90
2019-04-04T18:31:04.207Z,5.90
2019-04-04T18:33:33.862Z,5.90
2019-04-04T18:36:03.649Z,5.80
2019-04-04T18:38:33.377Z,5.80
2019-04-04T18:41:03.373Z,5.80
2019-04-04T18:43:33.136Z,5.80
2019-04-04T18:46:02.746Z,5.80
2019-04-04T18:48:32.539Z,5.80
2019-04-04T18:51:01.989Z,5.80
2019-04-04T18:53:31.554Z,5.80
2019-04-04T18:56:01.056Z,5.80
2019-04-04T18:58:30.623Z,5.80
2019-04-04T19:01:00.268Z,5.80
2019-04-04T19:03:31.345Z,5.80
2019-04-04T19:06:01.532Z,5.80
2019-04-04T19:08:31.220Z,5.80
2019-04-04T19:11:01.122Z,5.80
2019-04-04T19:13:34.135Z,5.80
2019-04-04T19:16:02.249Z,5.80
2019-04-04T19:18:31.982Z,5.80
2019-04-04T19:21:01.563Z,5.80
2019-04-04T19:23:50.112Z,5.80
2019-04-04T19:26:20.426Z,5.70
2019-04-04T19:28:49.822Z,5.50
2019-04-04T19:31:19.681Z,5.50
2019-04-04T19:33:49.530Z,5.40
2019-04-04T19:36:19.317Z,5.20
2019-04-04T19:38:48.769Z,5.00
2019-04-04T19:41:18.600Z,4.90
2019-04-04T19:43:48.494Z,4.90
2019-04-04T19:46:17.933Z,4.90
2019-04-04T19:48:48.465Z,4.80
2019-04-04T19:51:18.543Z,4.80
2019-04-04T19:53:48.523Z,4.70
2019-04-04T19:56:18.143Z,4.70
2019-04-04T19:58:48.005Z,4.70
2019-04-04T20:01:17.669Z,4.70
2019-04-04T20:03:47.481Z,4.60
2019-04-04T20:06:17.082Z,4.60
2019-04-04T20:08:49.852Z,4.70
2019-04-04T20:11:18.463Z,4.70
2019-04-04T20:13:48.168Z,4.70
2019-04-04T20:16:18.093Z,4.70
2019-04-04T20:18:47.675Z,4.70
2019-04-04T20:21:17.426Z,4.70
2019-04-04T20:23:47.295Z,4.80
2019-04-04T20:26:17.008Z,4.80
2019-04-04T20:28:46.564Z,4.70
2019-04-04T20:31:16.181Z,4.70
2019-04-04T20:33:45.994Z,4.70
2019-04-04T20:36:15.810Z,4.60
2019-04-04T20:38:45.495Z,4.60
2019-04-04T20:41:16.597Z,4.50
2019-04-04T20:43:46.335Z,4.50
2019-04-04T20:46:15.910Z,4.50
2019-04-04T20:48:45.797Z,4.50
2019-04-04T20:51:15.753Z,4.50
2019-04-04T20:53:45.729Z,4.40
2019-04-04T20:56:15.552Z,4.40
2019-04-04T20:58:45.301Z,4.30
2019-04-04T21:01:15.284Z,4.30
2019-04-04T21:03:45.386Z,4.30
2019-04-04T21:06:15.533Z,4.20
2019-04-04T21:08:45.084Z,4.10
2019-04-04T21:11:15.132Z,4.00
2019-04-04T21:13:55.428Z,4.00
2019-04-04T21:16:15.637Z,3.90
2019-04-04T21:18:45.576Z,3.80
2019-04-04T21:21:15.380Z,3.80
2019-04-04T21:23:45.037Z,3.80
2019-04-04T21:26:15.040Z,3.80
2019-04-04T21:28:45.082Z,3.80
2019-04-04T21:31:14.980Z,3.70
2019-04-04T21:33:44.795Z,3.70
2019-04-04T21:36:14.379Z,3.70
2019-04-04T21:38:44.290Z,3.70
2019-04-04T21:41:14.082Z,3.70
2019-04-04T21:43:43.912Z,3.80
2019-04-04T21:46:13.874Z,3.80
2019-04-04T21:48:43.815Z,3.80
2019-04-04T21:51:13.427Z,3.80
2019-04-04T21:53:43.156Z,3.90
2019-04-04T21:56:12.774Z,3.90
2019-04-04T21:58:42.379Z,3.90
2019-04-04T22:01:12.454Z,3.90
2019-04-04T22:03:42.514Z,3.90
2019-04-04T22:06:12.451Z,3.90
2019-04-04T22:08:42.348Z,3.90
2019-04-04T22:11:12.031Z,3.90
2019-04-04T22:13:41.522Z,3.90
2019-04-04T22:16:11.312Z,3.90
2019-04-04T22:18:41.125Z,3.90
2019-04-04T22:21:11.029Z,3.90
2019-04-04T22:23:41.050Z,3.90
2019-04-04T22:26:11.076Z,3.90
2019-04-04T22:28:41.299Z,3.90
2019-04-04T22:31:11.420Z,3.90
2019-04-04T22:33:41.275Z,3.90
2019-04-04T22:36:11.074Z,4.00
2019-04-04T22:38:40.815Z,4.00
2019-04-04T22:41:10.589Z,4.00
2019-04-04T22:43:40.411Z,4.00
2019-04-04T22:46:10.610Z,4.00
2019-04-04T22:48:40.322Z,4.10
2019-04-04T22:51:10.154Z,4.10
2019-04-04T22:53:39.887Z,4.20
2019-04-04T22:56:09.708Z,4.20
2019-04-04T22:58:39.558Z,4.30
2019-04-04T23:01:09.675Z,4.30
2019-04-04T23:03:39.679Z,4.30
2019-04-04T23:06:09.760Z,4.30
2019-04-04T23:08:39.691Z,4.30
2019-04-04T23:11:10.132Z,4.30
2019-04-04T23:13:40.246Z,4.30
2019-04-04T23:16:10.376Z,4.30
2019-04-04T23:18:40.478Z,4.30
2019-04-04T23:21:10.999Z,4.30
2019-04-04T23:23:41.160Z,4.30
2019-04-04T23:26:11.223Z,4.30
2019-04-04T23:28:41.380Z,4.30
2019-04-04T23:31:11.594Z,4.20
2019-04-04T23:33:41.562Z,4.20
2019-04-04T23:36:11.408Z,4.20
2019-04-04T23:38:41.382Z,4.20
2019-04-04T23:41:11.325Z,4.20
2019-04-04T23:43:41.588Z,4.20
2019-04-04T23:46:11.714Z,4.10
2019-04-04T23:48:41.877Z,4.20
2019-04-04T23:51:12.110Z,4.20
2019-04-04T23:53:42.230Z,4.20
2019-04-04T23:56:12.166Z,4.20
2019-04-04T23:58:42.312Z,4.20
